Bookmark and Share
Track history (hours):
 

Catherine Desgagnes

Last reported at 2013-Dec-28 08:08 UTC. Time now 2014-Apr-16 19:19 UTC.
Position N 47°36' W 052°55'.
Warning: this ship's position is months out of date.

Length 125 m; draft 7.9 m.

Type: Ship. MMSI: 316001203.

NotesDate/timePositionNaut miles runAvg speedWind from/ knotsBaromVisibWave heightAir tempDewpointWater temp
2013-Dec-28 08:08N 47°36' W 052°55'  
2013-Dec-22 08:29N 47°33' W 052°58'16 5.4
2013-Dec-22 05:30N 47°37' W 052°35'1212.3
2013-Dec-22 04:32N 47°25' W 052°35'1212.1
2013-Dec-22 03:32N 47°14' W 052°39'  
2013-Dec-19 02:33N 46°29' W 072°14'1313.4
2013-Dec-19 01:34N 46°21' W 072°30'8 7.9
2013-Dec-19 00:33N 46°16' W 072°39'3110.4
2013-Dec-18 21:34N 45°55' W 073°13'1413.7
2013-Dec-18 20:33N 45°44' W 073°25'1312.7
2013-Dec-18 19:33N 45°33' W 073°32'3 3.5
2013-Dec-18 18:33N 45°29' W 073°31'1 0.6
2013-Dec-18 17:33N 45°29' W 073°31'4 3.8
2013-Dec-18 16:33N 45°25' W 073°31'2 2.4
2013-Dec-18 15:33N 45°24' W 073°34'0 0.4
2013-Dec-18 14:33N 45°24' W 073°35'1 1.2
2013-Dec-18 13:33N 45°24' W 073°37'6 5.6
2013-Dec-18 12:33N 45°24' W 073°45'8 8.1
2013-Dec-18 11:33N 45°20' W 073°54'0 0.0
2013-Dec-18 10:31N 45°20' W 073°54'0 0.0
2013-Dec-18 09:31N 45°20' W 073°54'0 0.0
2013-Dec-18 08:28N 45°20' W 073°54'  

Dump ship's entire track history

sailing weather and tide predictions

Catherine Desgagnes — VOWN — position and weather